createdAt,value
2022-11-17T00:00:43.008Z,100587.38
2022-11-17T00:03:17.706Z,100582.66
2022-11-17T00:05:45.145Z,100577.56
2022-11-17T00:08:12.450Z,100571.44
2022-11-17T00:10:39.553Z,100565.34
2022-11-17T00:13:25.026Z,100571.00
2022-11-17T00:15:52.087Z,100561.41
2022-11-17T00:18:37.576Z,100561.25
2022-11-17T00:21:21.653Z,100559.31
2022-11-17T00:23:50.383Z,100566.44
2022-11-17T00:26:21.195Z,100553.97
2022-11-17T00:28:55.810Z,100565.88
2022-11-17T00:31:44.051Z,100566.44
2022-11-17T00:34:18.932Z,100557.59
2022-11-17T00:36:52.300Z,100565.75
2022-11-17T00:39:21.961Z,100563.63
2022-11-17T00:41:49.188Z,100574.13
2022-11-17T00:44:16.829Z,100575.31
2022-11-17T00:46:44.115Z,100570.47
2022-11-17T00:49:12.361Z,100575.84
2022-11-17T00:51:42.373Z,100584.47
2022-11-17T00:54:12.962Z,100572.22
2022-11-17T00:56:40.419Z,100573.00
2022-11-17T00:59:07.469Z,100575.94
2022-11-17T01:01:34.904Z,100568.44
2022-11-17T01:04:05.699Z,100576.97
2022-11-17T01:06:53.022Z,100574.41
2022-11-17T01:09:23.571Z,100569.34
2022-11-17T01:11:53.017Z,100570.91
2022-11-17T01:14:29.180Z,100565.06
2022-11-17T01:16:56.550Z,100569.06
2022-11-17T01:19:24.652Z,100568.66
2022-11-17T01:21:51.730Z,100563.19
2022-11-17T01:24:19.053Z,100567.34
2022-11-17T01:26:46.886Z,100567.81
2022-11-17T01:29:18.949Z,100567.34
2022-11-17T01:31:51.390Z,100573.75
2022-11-17T01:34:19.468Z,100573.84
2022-11-17T01:37:05.487Z,100566.19
2022-11-17T01:39:32.733Z,100563.81
2022-11-17T01:42:11.858Z,100563.34
2022-11-17T01:44:55.536Z,100567.34
2022-11-17T01:47:25.424Z,100563.88
2022-11-17T01:50:01.041Z,100559.31
2022-11-17T01:52:31.721Z,100554.28
2022-11-17T01:55:02.997Z,100562.84
2022-11-17T01:57:59.996Z,100563.50
2022-11-17T02:00:28.274Z,100571.78
2022-11-17T02:02:56.022Z,100564.81
2022-11-17T02:05:30.857Z,100564.75
2022-11-17T02:08:02.068Z,100544.59
2022-11-17T02:10:31.632Z,100554.59
2022-11-17T02:13:01.534Z,100548.69
2022-11-17T02:15:31.929Z,100540.19
2022-11-17T02:18:00.440Z,100544.53
2022-11-17T02:21:02.557Z,100543.03
2022-11-17T02:23:57.213Z,100526.78
2022-11-17T02:26:58.823Z,100537.16
2022-11-17T02:29:48.278Z,100532.41
2022-11-17T02:32:34.183Z,100535.09
2022-11-17T02:35:13.120Z,100534.75
2022-11-17T02:38:01.435Z,100526.34
2022-11-17T02:41:06.851Z,100534.59
2022-11-17T02:44:20.466Z,100541.91
2022-11-17T02:47:01.810Z,100538.13
2022-11-17T02:49:45.432Z,100529.88
2022-11-17T02:52:14.497Z,100536.38
2022-11-17T02:54:43.631Z,100532.19
2022-11-17T02:57:40.204Z,100542.81
2022-11-17T03:00:18.942Z,100538.63
2022-11-17T03:03:07.202Z,100540.72
2022-11-17T03:05:54.397Z,100536.03
2022-11-17T03:08:47.835Z,100526.25
2022-11-17T03:11:15.111Z,100525.72
2022-11-17T03:13:57.509Z,100532.06
2022-11-17T03:17:09.601Z,100534.00
2022-11-17T03:20:02.296Z,100532.09
2022-11-17T03:22:57.309Z,100538.78
2022-11-17T03:25:32.262Z,100533.75
2022-11-17T03:28:06.768Z,100527.78
2022-11-17T03:30:40.264Z,100534.59
2022-11-17T03:33:17.617Z,100530.44
2022-11-17T03:36:07.129Z,100525.72
2022-11-17T03:38:44.977Z,100535.50
2022-11-17T03:41:15.569Z,100527.81
2022-11-17T03:43:49.622Z,100533.47
2022-11-17T03:46:22.131Z,100536.75
2022-11-17T03:49:20.830Z,100530.50
2022-11-17T03:51:47.861Z,100533.03
2022-11-17T03:54:15.841Z,100531.50
2022-11-17T03:57:17.061Z,100524.16
2022-11-17T04:00:10.371Z,100524.56
2022-11-17T04:02:40.574Z,100525.81
2022-11-17T04:05:08.690Z,100522.88
2022-11-17T04:07:42.369Z,100531.09
2022-11-17T04:10:13.630Z,100528.94
2022-11-17T04:13:01.625Z,100525.88
2022-11-17T04:15:47.921Z,100530.91
2022-11-17T04:18:15.531Z,100524.94
2022-11-17T04:20:43.312Z,100537.41
2022-11-17T04:23:14.373Z,100534.94
2022-11-17T04:26:04.840Z,100537.09
2022-11-17T04:28:37.222Z,100542.66
2022-11-17T04:31:29.234Z,100539.91
2022-11-17T04:33:58.542Z,100537.34
2022-11-17T04:36:29.453Z,100548.25
2022-11-17T04:38:59.457Z,100546.41
2022-11-17T04:41:47.435Z,100544.84
2022-11-17T04:44:17.526Z,100546.19
2022-11-17T04:46:48.719Z,100535.13
2022-11-17T04:49:17.876Z,100534.25
2022-11-17T04:51:45.513Z,100530.56
2022-11-17T04:54:16.766Z,100529.97
2022-11-17T04:56:44.410Z,100526.19
2022-11-17T04:59:11.699Z,100524.06
2022-11-17T05:01:39.204Z,100528.78
2022-11-17T05:04:12.669Z,100531.72
2022-11-17T05:06:45.076Z,100524.19
2022-11-17T05:09:15.838Z,100534.78
2022-11-17T05:12:02.222Z,100537.44
2022-11-17T05:14:29.744Z,100533.97
2022-11-17T05:17:10.532Z,100537.97
2022-11-17T05:19:47.217Z,100537.13
2022-11-17T05:22:41.759Z,100532.28
2022-11-17T05:25:10.008Z,100530.34
2022-11-17T05:27:37.343Z,100533.97
2022-11-17T05:30:07.572Z,100531.69
2022-11-17T05:32:34.781Z,100530.03
2022-11-17T05:35:04.675Z,100524.03
2022-11-17T05:37:31.657Z,100523.44
2022-11-17T05:39:58.675Z,100521.81
2022-11-17T05:42:28.145Z,100526.75
2022-11-17T05:44:55.357Z,100530.59
2022-11-17T05:47:22.404Z,100530.03
2022-11-17T05:49:49.387Z,100540.22
2022-11-17T05:52:16.438Z,100532.19
2022-11-17T05:54:43.475Z,100536.88
2022-11-17T05:57:16.936Z,100534.34
2022-11-17T05:59:56.282Z,100538.97
2022-11-17T06:02:30.647Z,100541.88
2022-11-17T06:04:57.613Z,100551.25
2022-11-17T06:07:24.839Z,100535.59
2022-11-17T06:09:53.391Z,100544.97
2022-11-17T06:12:20.801Z,100547.91
2022-11-17T06:14:47.917Z,100544.59
2022-11-17T06:17:28.213Z,100541.13
2022-11-17T06:20:08.757Z,100550.81
2022-11-17T06:22:36.537Z,100549.56
2022-11-17T06:25:05.910Z,100558.03
2022-11-17T06:27:34.016Z,100549.88
2022-11-17T06:30:06.730Z,100552.38
2022-11-17T06:32:37.276Z,100545.75
2022-11-17T06:35:10.690Z,100548.22
2022-11-17T06:37:37.710Z,100544.81
2022-11-17T06:40:05.753Z,100552.75
2022-11-17T06:42:51.037Z,100547.97
2022-11-17T06:45:18.313Z,100551.41
2022-11-17T06:47:54.305Z,100545.50
2022-11-17T06:50:23.392Z,100543.44
2022-11-17T06:52:56.031Z,100542.97
2022-11-17T06:55:23.116Z,100540.31
2022-11-17T06:57:53.363Z,100539.75
2022-11-17T07:00:21.337Z,100537.50
2022-11-17T07:02:48.435Z,100548.31
2022-11-17T07:05:18.072Z,100544.84
2022-11-17T07:07:45.194Z,100551.72
2022-11-17T07:10:14.574Z,100537.28
2022-11-17T07:12:41.644Z,100550.66
2022-11-17T07:15:09.355Z,100550.00
2022-11-17T07:17:36.360Z,100551.03
2022-11-17T07:20:04.242Z,100546.59
2022-11-17T07:22:33.777Z,100549.50
2022-11-17T07:25:00.739Z,100543.16
2022-11-17T07:27:27.910Z,100550.81
2022-11-17T07:29:54.965Z,100551.75
2022-11-17T07:32:22.135Z,100543.09
2022-11-17T07:34:49.530Z,100542.22
2022-11-17T07:37:17.208Z,100537.97
2022-11-17T07:39:44.351Z,100540.41
2022-11-17T07:42:11.378Z,100547.16
2022-11-17T07:44:38.445Z,100548.03
2022-11-17T07:47:05.699Z,100543.41
2022-11-17T07:49:32.836Z,100537.91
2022-11-17T07:52:02.386Z,100544.88
2022-11-17T07:54:29.535Z,100550.53
2022-11-17T07:56:56.620Z,100551.13
2022-11-17T07:59:23.774Z,100549.84
2022-11-17T08:01:50.822Z,100552.03
2022-11-17T08:04:20.698Z,100554.16
2022-11-17T08:06:47.772Z,100548.19
2022-11-17T08:09:16.286Z,100547.84
2022-11-17T08:11:45.780Z,100544.44
2022-11-17T08:14:12.880Z,100538.19
2022-11-17T08:16:39.948Z,100543.91
2022-11-17T08:19:12.126Z,100542.88
2022-11-17T08:21:40.124Z,100550.19
2022-11-17T08:24:09.726Z,100547.34
2022-11-17T08:26:36.989Z,100547.41
2022-11-17T08:29:04.471Z,100541.25
2022-11-17T08:31:31.563Z,100535.94
2022-11-17T08:33:58.537Z,100550.63
2022-11-17T08:36:25.547Z,100543.09
2022-11-17T08:38:52.583Z,100545.34
2022-11-17T08:41:19.993Z,100550.25
2022-11-17T08:43:47.139Z,100549.38
2022-11-17T08:46:17.135Z,100550.84
2022-11-17T08:48:52.254Z,100551.44
2022-11-17T08:51:22.759Z,100545.44
2022-11-17T08:53:52.228Z,100545.22
2022-11-17T08:56:19.402Z,100546.69
2022-11-17T08:58:46.570Z,100546.00
2022-11-17T09:01:16.071Z,100556.94
2022-11-17T09:03:45.983Z,100540.66
2022-11-17T09:06:15.892Z,100550.72
2022-11-17T09:08:46.231Z,100547.63
2022-11-17T09:11:14.618Z,100543.91
2022-11-17T09:13:42.284Z,100549.56
2022-11-17T09:16:11.761Z,100547.97
2022-11-17T09:18:39.808Z,100542.50
2022-11-17T09:21:15.303Z,100534.81
2022-11-17T09:23:42.958Z,100540.22
2022-11-17T09:26:13.254Z,100538.69
2022-11-17T09:28:43.226Z,100529.69
2022-11-17T09:31:19.843Z,100536.88
2022-11-17T09:33:47.141Z,100533.75
2022-11-17T09:36:16.267Z,100533.78
2022-11-17T09:38:47.179Z,100524.84
2022-11-17T09:41:43.554Z,100527.38
2022-11-17T09:44:32.067Z,100531.03
2022-11-17T09:47:38.553Z,100532.03
2022-11-17T09:50:27.231Z,100531.97
2022-11-17T09:53:23.897Z,100526.41
2022-11-17T09:56:13.560Z,100526.94
2022-11-17T09:58:55.332Z,100539.47
2022-11-17T10:01:23.278Z,100525.72
2022-11-17T10:03:51.377Z,100519.38
2022-11-17T10:06:25.389Z,100521.97
2022-11-17T10:09:10.293Z,100523.84
2022-11-17T10:11:41.485Z,100514.09
2022-11-17T10:14:08.370Z,100507.44
2022-11-17T10:16:51.012Z,100506.50
2022-11-17T10:19:25.505Z,100507.13
2022-11-17T10:22:20.697Z,100508.75
2022-11-17T10:24:55.039Z,100519.03
2022-11-17T10:27:34.281Z,100521.75
2022-11-17T10:30:24.486Z,100516.22
2022-11-17T10:33:00.949Z,100500.66
2022-11-17T10:35:35.804Z,100499.28
2022-11-17T10:38:20.940Z,100506.25
2022-11-17T10:40:52.966Z,100497.41
2022-11-17T10:43:30.931Z,100494.91
2022-11-17T10:46:12.577Z,100498.28
2022-11-17T10:48:53.420Z,100493.44
2022-11-17T10:51:26.972Z,100500.03
2022-11-17T10:54:21.015Z,100487.94
2022-11-17T10:56:57.559Z,100495.47
2022-11-17T11:00:05.301Z,100490.22
2022-11-17T11:02:40.254Z,100488.06
2022-11-17T11:05:08.898Z,100488.16
2022-11-17T11:07:36.979Z,100483.38
2022-11-17T11:10:31.895Z,100478.63
2022-11-17T11:13:29.571Z,100486.38
2022-11-17T11:15:56.661Z,100474.50
2022-11-17T11:18:23.864Z,100475.59
2022-11-17T11:21:02.702Z,100474.03
2022-11-17T11:23:54.636Z,100480.84
2022-11-17T11:27:01.680Z,100485.81
2022-11-17T11:29:57.848Z,100491.78
2022-11-17T11:33:07.462Z,100485.91
2022-11-17T11:36:15.294Z,100474.75
2022-11-17T11:38:51.395Z,100479.56
2022-11-17T11:42:06.402Z,100467.69
2022-11-17T11:44:53.004Z,100461.97
2022-11-17T11:47:38.046Z,100473.56
2022-11-17T11:50:27.267Z,100474.50
2022-11-17T11:53:23.634Z,100466.16
2022-11-17T11:56:06.084Z,100462.41
2022-11-17T11:58:33.045Z,100461.38
2022-11-17T12:01:01.104Z,100456.34
2022-11-17T12:03:46.466Z,100464.09
2022-11-17T12:06:35.847Z,100464.09
2022-11-17T12:09:19.223Z,100470.69
2022-11-17T12:12:02.676Z,100468.25
2022-11-17T12:14:36.432Z,100452.69
2022-11-17T12:17:26.275Z,100460.56
2022-11-17T12:20:07.494Z,100458.16
2022-11-17T12:22:37.429Z,100454.44
2022-11-17T12:25:29.131Z,100457.72
2022-11-17T12:27:56.252Z,100463.22
2022-11-17T12:30:36.745Z,100454.13
2022-11-17T12:33:08.627Z,100454.00
2022-11-17T12:35:37.249Z,100453.94
2022-11-17T12:38:20.068Z,100445.69
2022-11-17T12:40:51.644Z,100458.47
2022-11-17T12:43:29.918Z,100452.00
2022-11-17T12:46:03.619Z,100454.94
2022-11-17T12:48:34.808Z,100453.19
2022-11-17T12:51:29.403Z,100454.06
2022-11-17T12:54:21.074Z,100459.66
2022-11-17T12:56:51.912Z,100455.47
2022-11-17T13:00:10.776Z,100456.56
2022-11-17T13:03:22.273Z,100440.63
2022-11-17T13:09:12.380Z,100444.69
2022-11-17T13:11:41.858Z,100447.22
2022-11-17T13:14:16.726Z,100443.94
2022-11-17T13:16:50.851Z,100447.63
2022-11-17T13:19:41.454Z,100449.25
2022-11-17T13:22:11.455Z,100450.09
2022-11-17T13:24:47.412Z,100440.56
2022-11-17T13:27:32.852Z,100440.16
2022-11-17T13:30:21.716Z,100437.31
2022-11-17T13:32:49.590Z,100436.75
2022-11-17T13:35:29.861Z,100430.28
2022-11-17T13:38:12.208Z,100439.84
2022-11-17T13:40:40.878Z,100429.94
2022-11-17T13:43:17.313Z,100416.50
2022-11-17T13:45:45.822Z,100429.63
2022-11-17T13:48:35.588Z,100420.41
2022-11-17T13:51:20.762Z,100416.91
2022-11-17T13:53:59.197Z,100416.16
2022-11-17T13:56:36.715Z,100436.22
2022-11-17T13:59:26.175Z,100430.81
2022-11-17T14:02:20.862Z,100431.13
2022-11-17T14:05:15.088Z,100426.59
2022-11-17T14:07:44.441Z,100420.78
2022-11-17T14:10:15.222Z,100418.72
2022-11-17T14:12:45.195Z,100432.41
2022-11-17T14:15:27.506Z,100435.88
2022-11-17T14:18:00.163Z,100431.22
2022-11-17T14:20:35.895Z,100431.09
2022-11-17T14:23:02.934Z,100425.63
2022-11-17T14:25:39.401Z,100423.25
2022-11-17T14:28:19.250Z,100426.47
2022-11-17T14:30:52.312Z,100428.94
2022-11-17T14:33:20.699Z,100433.91
2022-11-17T14:35:55.026Z,100439.69
2022-11-17T14:38:22.455Z,100430.16
2022-11-17T14:40:52.275Z,100431.97
2022-11-17T14:43:21.116Z,100427.34
2022-11-17T14:45:49.781Z,100422.88
2022-11-17T14:48:20.337Z,100428.53
2022-11-17T14:50:48.391Z,100415.81
2022-11-17T14:53:17.549Z,100425.03
2022-11-17T14:55:47.507Z,100422.75
2022-11-17T14:58:15.159Z,100421.88
2022-11-17T15:00:44.657Z,100431.78
2022-11-17T15:03:11.805Z,100422.16
2022-11-17T15:05:46.195Z,100418.25
2022-11-17T15:08:18.179Z,100416.81
2022-11-17T15:10:45.957Z,100417.09
2022-11-17T15:13:13.067Z,100419.88
2022-11-17T15:15:40.175Z,100416.63
2022-11-17T15:18:12.843Z,100414.03
2022-11-17T15:20:39.902Z,100412.03
2022-11-17T15:23:06.916Z,100409.78
2022-11-17T15:25:33.945Z,100411.41
2022-11-17T15:28:01.024Z,100405.41
2022-11-17T15:30:28.278Z,100404.59
2022-11-17T15:32:55.347Z,100410.19
2022-11-17T15:35:22.332Z,100412.47
2022-11-17T15:37:49.395Z,100414.94
2022-11-17T15:40:19.572Z,100410.03
2022-11-17T15:42:46.785Z,100413.72
2022-11-17T15:45:13.962Z,100406.72
2022-11-17T15:47:40.981Z,100407.78
2022-11-17T15:50:08.813Z,100418.44
2022-11-17T15:53:02.329Z,100407.25
2022-11-17T15:55:22.842Z,100398.50
2022-11-17T15:57:54.669Z,100389.38
2022-11-17T16:00:21.946Z,100391.50
2022-11-17T16:02:55.804Z,100396.13
2022-11-17T16:05:25.585Z,100398.44
2022-11-17T16:07:52.688Z,100399.34
2022-11-17T16:10:19.722Z,100395.97
2022-11-17T16:12:49.534Z,100397.31
2022-11-17T16:15:19.601Z,100393.81
2022-11-17T16:17:46.603Z,100386.69
2022-11-17T16:20:14.206Z,100374.97
2022-11-17T16:22:41.218Z,100390.06
2022-11-17T16:25:10.678Z,100387.69
2022-11-17T16:27:37.743Z,100388.38
2022-11-17T16:30:05.241Z,100392.63
2022-11-17T16:32:32.386Z,100393.50
2022-11-17T16:35:01.482Z,100397.38
2022-11-17T16:37:28.542Z,100401.94
2022-11-17T16:39:56.408Z,100394.94
2022-11-17T16:42:23.417Z,100388.78
2022-11-17T16:44:50.603Z,100394.94
2022-11-17T16:47:17.606Z,100395.47
2022-11-17T16:49:47.851Z,100404.03
2022-11-17T16:52:17.642Z,100397.44
2022-11-17T16:54:44.638Z,100408.41
2022-11-17T16:57:11.658Z,100404.28
2022-11-17T16:59:41.315Z,100400.88
2022-11-17T17:02:15.503Z,100405.38
2022-11-17T17:04:42.478Z,100397.56
2022-11-17T17:07:09.555Z,100404.84
2022-11-17T17:09:37.868Z,100402.66
2022-11-17T17:12:05.675Z,100401.13
2022-11-17T17:14:32.684Z,100394.41
2022-11-17T17:17:02.298Z,100401.25
2022-11-17T17:19:29.579Z,100398.41
2022-11-17T17:21:56.784Z,100399.63
2022-11-17T17:24:23.805Z,100391.94
2022-11-17T17:26:50.810Z,100389.56
2022-11-17T17:29:18.283Z,100387.81
2022-11-17T17:31:45.564Z,100386.72
2022-11-17T17:34:13.378Z,100388.66
2022-11-17T17:36:45.684Z,100386.16
2022-11-17T17:39:15.680Z,100394.69
2022-11-17T17:41:44.531Z,100385.59
2022-11-17T17:44:18.713Z,100381.63
2022-11-17T17:46:46.860Z,100384.63
2022-11-17T17:49:14.644Z,100385.63
2022-11-17T17:51:44.443Z,100384.75
2022-11-17T17:54:21.460Z,100381.41
2022-11-17T17:56:48.596Z,100392.06
2022-11-17T17:59:16.821Z,100390.13
2022-11-17T18:01:46.281Z,100388.31
2022-11-17T18:04:16.086Z,100395.81
2022-11-17T18:06:48.794Z,100398.59
2022-11-17T18:09:20.626Z,100398.44
2022-11-17T18:11:50.821Z,100387.22
2022-11-17T18:14:23.941Z,100387.13
2022-11-17T18:16:54.336Z,100380.06
2022-11-17T18:19:22.288Z,100384.72
2022-11-17T18:21:49.504Z,100384.56
2022-11-17T18:24:16.570Z,100378.56
2022-11-17T18:26:43.850Z,100378.69
2022-11-17T18:29:18.541Z,100384.44
2022-11-17T18:31:47.539Z,100390.38
2022-11-17T18:34:22.991Z,100382.13
2022-11-17T18:36:58.073Z,100378.28
2022-11-17T18:39:25.320Z,100385.19
2022-11-17T18:41:52.376Z,100382.19
2022-11-17T18:44:19.803Z,100378.78
2022-11-17T18:46:49.435Z,100383.22
2022-11-17T18:49:16.929Z,100372.50
2022-11-17T18:51:46.340Z,100373.78
2022-11-17T18:54:16.026Z,100369.41
2022-11-17T18:56:46.905Z,100370.13
2022-11-17T18:59:14.347Z,100370.28
2022-11-17T19:01:43.326Z,100361.03
2022-11-17T19:04:13.997Z,100362.31
2022-11-17T19:06:41.335Z,100359.47
2022-11-17T19:09:08.597Z,100363.97
2022-11-17T19:11:35.849Z,100361.16
2022-11-17T19:14:05.266Z,100352.78
2022-11-17T19:16:33.432Z,100350.59
2022-11-17T19:19:00.710Z,100362.53
2022-11-17T19:21:36.006Z,100367.75
2022-11-17T19:24:07.818Z,100362.34
2022-11-17T19:26:36.255Z,100363.34
2022-11-17T19:29:16.140Z,100362.25
2022-11-17T19:31:47.506Z,100371.03
2022-11-17T19:34:16.065Z,100362.22
2022-11-17T19:36:45.350Z,100364.84
2022-11-17T19:39:14.197Z,100359.28
2022-11-17T19:41:42.219Z,100362.69
2022-11-17T19:44:10.002Z,100359.66
2022-11-17T19:46:37.582Z,100359.50
2022-11-17T19:49:06.294Z,100357.84
2022-11-17T19:51:41.975Z,100358.34
2022-11-17T19:54:11.838Z,100356.97
2022-11-17T19:56:38.978Z,100361.72
2022-11-17T19:59:09.701Z,100355.28
2022-11-17T20:01:39.668Z,100356.28
2022-11-17T20:04:07.426Z,100353.19
2022-11-17T20:06:38.569Z,100356.47
2022-11-17T20:09:14.981Z,100360.25
2022-11-17T20:11:42.907Z,100359.34
2022-11-17T20:14:10.919Z,100359.34
2022-11-17T20:16:40.490Z,100347.91
2022-11-17T20:19:08.696Z,100356.22
2022-11-17T20:21:35.818Z,100351.03
2022-11-17T20:24:03.377Z,100357.94
2022-11-17T20:26:33.922Z,100356.75
2022-11-17T20:29:03.256Z,100350.56
2022-11-17T20:31:33.629Z,100343.41
2022-11-17T20:34:03.782Z,100345.25
2022-11-17T20:36:34.015Z,100352.88
2022-11-17T20:39:05.602Z,100353.69
2022-11-17T20:41:33.012Z,100345.44
2022-11-17T20:44:26.721Z,100345.88
2022-11-17T20:46:58.088Z,100347.78
2022-11-17T20:49:27.940Z,100343.28
2022-11-17T20:52:03.225Z,100340.50
2022-11-17T20:54:36.276Z,100342.72
2022-11-17T20:57:10.048Z,100341.69
2022-11-17T20:59:37.516Z,100337.28
2022-11-17T21:02:04.631Z,100334.25
2022-11-17T21:04:32.010Z,100327.69
2022-11-17T21:07:01.968Z,100330.97
2022-11-17T21:09:29.090Z,100324.13
2022-11-17T21:11:59.394Z,100331.66
2022-11-17T21:14:27.665Z,100332.63
2022-11-17T21:16:57.626Z,100330.13
2022-11-17T21:19:24.770Z,100331.78
2022-11-17T21:21:53.445Z,100326.66
2022-11-17T21:24:22.074Z,100326.00
2022-11-17T21:26:51.507Z,100316.25
2022-11-17T21:29:18.687Z,100320.66
2022-11-17T21:31:46.408Z,100317.34
2022-11-17T21:34:17.408Z,100313.38
2022-11-17T21:36:44.855Z,100317.31
2022-11-17T21:39:18.260Z,100317.03
2022-11-17T21:41:48.357Z,100307.19
2022-11-17T21:44:15.523Z,100308.97
2022-11-17T21:46:42.584Z,100305.94
2022-11-17T21:49:09.724Z,100304.25
2022-11-17T21:51:38.691Z,100305.78
2022-11-17T21:54:09.795Z,100306.63
2022-11-17T21:56:37.237Z,100305.53
2022-11-17T21:59:10.221Z,100301.25
2022-11-17T22:01:37.804Z,100301.53
2022-11-17T22:04:05.058Z,100305.44
2022-11-17T22:06:34.565Z,100308.31
2022-11-17T22:09:01.609Z,100305.03
2022-11-17T22:11:38.200Z,100312.63
2022-11-17T22:14:19.280Z,100310.72
2022-11-17T22:16:47.686Z,100304.03
2022-11-17T22:19:17.257Z,100302.88
2022-11-17T22:21:47.118Z,100301.78
2022-11-17T22:24:14.299Z,100296.00
2022-11-17T22:26:44.233Z,100298.19
2022-11-17T22:29:21.263Z,100294.28
2022-11-17T22:31:53.438Z,100296.94
2022-11-17T22:34:22.976Z,100292.78
2022-11-17T22:36:52.329Z,100296.84
2022-11-17T22:39:19.785Z,100295.47
2022-11-17T22:41:47.032Z,100298.78
2022-11-17T22:44:18.239Z,100293.13
2022-11-17T22:46:45.770Z,100290.53
2022-11-17T22:49:13.610Z,100286.25
2022-11-17T22:51:59.766Z,100283.06
2022-11-17T22:54:26.890Z,100283.56
2022-11-17T22:56:54.374Z,100284.41
2022-11-17T22:59:24.740Z,100282.72
2022-11-17T23:01:51.889Z,100289.59
2022-11-17T23:04:20.917Z,100288.78
2022-11-17T23:06:48.177Z,100283.91
2022-11-17T23:09:16.043Z,100286.03
2022-11-17T23:11:49.507Z,100286.88
2022-11-17T23:14:16.995Z,100278.31
2022-11-17T23:16:44.228Z,100269.44
2022-11-17T23:19:14.838Z,100279.44
2022-11-17T23:21:44.695Z,100277.16
2022-11-17T23:24:15.015Z,100280.44
2022-11-17T23:26:42.701Z,100287.13
2022-11-17T23:29:10.358Z,100281.53
2022-11-17T23:31:37.711Z,100276.63
2022-11-17T23:34:04.940Z,100280.19
2022-11-17T23:36:32.158Z,100278.44
2022-11-17T23:38:59.610Z,100278.00
2022-11-17T23:41:26.932Z,100280.53
2022-11-17T23:43:54.923Z,100282.84
2022-11-17T23:46:25.247Z,100282.25
2022-11-17T23:48:53.273Z,100284.69
2022-11-17T23:51:23.020Z,100280.25
2022-11-17T23:53:52.792Z,100289.25
2022-11-17T23:56:21.898Z,100299.56
2022-11-17T23:58:51.446Z,100294.88
